createdAt,value
2023-04-03T00:00:19.592Z,3.20
2023-04-03T00:05:21.370Z,2.60
2023-04-03T00:10:23.083Z,3.30
2023-04-03T00:15:24.793Z,3.08
2023-04-03T00:20:27.188Z,2.90
2023-04-03T00:25:28.900Z,3.17
2023-04-03T00:30:30.834Z,3.00
2023-04-03T00:35:32.877Z,3.35
2023-04-03T00:40:40.128Z,3.33
2023-04-03T00:45:44.339Z,2.53
2023-04-03T00:50:47.311Z,3.35
2023-04-03T00:55:51.000Z,2.75
2023-04-03T01:00:59.068Z,3.03
2023-04-03T01:06:01.260Z,3.05
2023-04-03T01:11:03.255Z,2.70
2023-04-03T01:16:06.983Z,2.63
2023-04-03T01:21:20.627Z,2.80
2023-04-03T01:26:22.373Z,2.28
2023-04-03T01:31:35.017Z,2.75
2023-04-03T01:36:37.073Z,2.83
2023-04-03T01:41:38.958Z,2.70
2023-04-03T01:46:49.391Z,2.58
2023-04-03T01:51:51.114Z,2.58
2023-04-03T01:56:52.863Z,2.70
2023-04-03T02:01:55.667Z,2.60
2023-04-03T02:06:57.282Z,2.75
2023-04-03T02:11:59.007Z,2.50
2023-04-03T02:17:05.932Z,2.53
2023-04-03T02:22:07.604Z,2.40
2023-04-03T02:27:09.477Z,2.28
2023-04-03T02:32:11.332Z,2.17
2023-04-03T02:37:13.629Z,2.20
2023-04-03T02:42:15.720Z,2.00
2023-04-03T02:47:17.553Z,1.90
2023-04-03T02:52:19.675Z,2.00
2023-04-03T02:57:22.683Z,2.35
2023-04-03T03:02:24.502Z,2.30
2023-04-03T03:07:26.963Z,1.95
2023-04-03T03:12:28.654Z,1.60
2023-04-03T03:17:31.494Z,1.50
2023-04-03T03:22:33.447Z,1.98
2023-04-03T03:27:35.655Z,1.80
2023-04-03T03:32:37.743Z,1.77
2023-04-03T03:37:39.731Z,1.73
2023-04-03T03:42:41.970Z,1.73
2023-04-03T03:47:43.770Z,1.98
2023-04-03T03:52:45.832Z,1.63
2023-04-03T03:57:47.526Z,1.90
2023-04-03T04:02:49.537Z,1.77
2023-04-03T04:07:54.668Z,1.83
2023-04-03T04:12:58.606Z,1.50
2023-04-03T04:18:03.260Z,1.80
2023-04-03T04:23:06.083Z,1.90
2023-04-03T04:28:08.267Z,1.70
2023-04-03T04:33:10.999Z,1.90
2023-04-03T04:38:13.573Z,2.00
2023-04-03T04:43:15.746Z,1.88
2023-04-03T04:48:19.904Z,1.70
2023-04-03T04:53:22.496Z,2.05
2023-04-03T04:58:24.779Z,2.40
2023-04-03T05:03:26.833Z,2.03
2023-04-03T05:08:28.912Z,2.00
2023-04-03T05:13:31.243Z,2.15
2023-04-03T05:18:33.347Z,2.30
2023-04-03T05:23:40.517Z,2.28
2023-04-03T05:28:42.689Z,2.40
2023-04-03T05:33:44.714Z,2.95
2023-04-03T05:38:51.284Z,2.55
2023-04-03T05:43:54.136Z,2.28
2023-04-03T05:48:57.608Z,2.63
2023-04-03T05:54:27.901Z,2.40
2023-04-03T05:59:37.313Z,2.67
2023-04-03T06:04:39.443Z,2.63
2023-04-03T06:09:41.603Z,3.20
2023-04-03T06:14:43.402Z,2.88
2023-04-03T06:19:45.921Z,2.83
2023-04-03T06:24:47.879Z,2.30
2023-04-03T06:29:50.260Z,3.15
2023-04-03T06:34:52.269Z,3.30
2023-04-03T06:39:54.133Z,3.10
2023-04-03T06:44:55.779Z,2.90
2023-04-03T06:49:57.463Z,2.85
2023-04-03T06:55:00.498Z,2.67
2023-04-03T07:00:02.166Z,2.78
2023-04-03T07:05:04.187Z,2.92
2023-04-03T07:10:07.350Z,3.20
2023-04-03T07:15:09.502Z,3.58
2023-04-03T07:20:11.977Z,2.70
2023-04-03T07:25:13.747Z,2.97
2023-04-03T07:30:15.744Z,3.35
2023-04-03T07:35:18.339Z,2.97
2023-04-03T07:40:20.845Z,2.78
2023-04-03T07:45:23.751Z,3.35
2023-04-03T07:50:25.845Z,3.17
2023-04-03T07:55:27.546Z,2.90
2023-04-03T08:00:29.240Z,3.10
2023-04-03T08:05:30.850Z,2.53
2023-04-03T08:10:33.117Z,2.72
2023-04-03T08:15:35.564Z,2.65
2023-04-03T08:20:40.909Z,3.25
2023-04-03T08:25:43.033Z,3.17
2023-04-03T08:30:45.562Z,3.08
2023-04-03T08:35:47.201Z,3.13
2023-04-03T08:41:00.301Z,2.47
2023-04-03T08:46:07.320Z,2.83
2023-04-03T08:51:17.469Z,2.45
2023-04-03T08:56:20.056Z,3.00
2023-04-03T09:01:31.022Z,2.70
2023-04-03T09:06:34.079Z,2.53
2023-04-03T09:11:42.455Z,2.65
2023-04-03T09:16:53.455Z,2.30
2023-04-03T09:21:58.384Z,3.15
2023-04-03T09:27:08.998Z,2.40
2023-04-03T09:32:35.004Z,2.40
2023-04-03T09:37:39.961Z,2.03
2023-04-03T09:42:46.237Z,1.75
2023-04-03T09:48:08.328Z,2.22
2023-04-03T09:53:31.776Z,2.08
2023-04-03T09:58:49.648Z,2.08
2023-04-03T10:04:11.810Z,2.42
2023-04-03T10:09:34.125Z,1.58
2023-04-03T10:14:38.730Z,1.90
2023-04-03T10:19:49.308Z,2.30
2023-04-03T10:25:01.319Z,2.25
2023-04-03T10:30:10.466Z,2.22
2023-04-03T10:35:33.656Z,1.65
2023-04-03T10:40:49.816Z,2.22
2023-04-03T10:46:00.566Z,2.72
2023-04-03T10:51:21.902Z,2.38
2023-04-03T10:56:36.320Z,2.40
2023-04-03T11:01:43.334Z,2.20
2023-04-03T11:06:52.239Z,2.53
2023-04-03T11:17:24.396Z,2.95
2023-04-03T11:22:38.492Z,2.78
2023-04-03T11:27:52.787Z,2.75
2023-04-03T11:33:27.887Z,2.05
2023-04-03T11:38:44.373Z,2.30
2023-04-03T11:43:58.430Z,2.55
2023-04-03T11:49:00.308Z,2.50
2023-04-03T11:54:44.931Z,2.65
2023-04-03T11:59:47.157Z,1.60
2023-04-03T12:05:29.060Z,2.00
2023-04-03T12:10:32.524Z,2.30
2023-04-03T12:15:37.811Z,2.58
2023-04-03T12:20:59.610Z,2.38
2023-04-03T12:26:20.638Z,2.15
2023-04-03T12:31:27.537Z,2.05
2023-04-03T12:36:54.174Z,1.90
2023-04-03T12:42:42.606Z,1.83
2023-04-03T12:47:45.657Z,1.70
2023-04-03T12:52:53.669Z,1.60
2023-04-03T12:57:55.269Z,1.70
2023-04-03T13:02:57.734Z,1.60
2023-04-03T13:08:06.620Z,3.05
2023-04-03T13:18:33.707Z,4.80
2023-04-03T13:23:39.730Z,1.85
2023-04-03T13:28:42.322Z,1.58
2023-04-03T13:33:56.986Z,1.73
2023-04-03T13:39:24.318Z,2.10
2023-04-03T13:44:36.369Z,2.00
2023-04-03T13:49:44.551Z,1.80
2023-04-03T13:54:55.379Z,1.42
2023-04-03T13:59:57.010Z,1.60
2023-04-03T14:05:02.822Z,2.03
2023-04-03T14:10:05.035Z,2.00
2023-04-03T14:15:18.943Z,2.00
2023-04-03T14:20:25.999Z,2.15
2023-04-03T14:25:27.809Z,1.65
2023-04-03T14:30:34.265Z,1.73
2023-04-03T14:35:36.174Z,1.67
2023-04-03T14:40:38.031Z,1.80
2023-04-03T14:45:40.203Z,1.90
2023-04-03T14:50:49.068Z,1.75
2023-04-03T14:55:56.485Z,2.00
2023-04-03T15:00:58.105Z,1.80
2023-04-03T15:06:00.308Z,1.75
2023-04-03T15:11:02.280Z,1.85
2023-04-03T15:16:05.134Z,2.30
2023-04-03T15:21:07.019Z,2.15
2023-04-03T15:26:08.836Z,1.92
2023-04-03T15:31:11.014Z,1.98
2023-04-03T15:41:18.739Z,2.10
2023-04-03T15:46:20.607Z,1.58
2023-04-03T15:51:22.353Z,2.22
2023-04-03T15:56:23.992Z,1.95
2023-04-03T16:01:25.746Z,1.73
2023-04-03T16:06:30.349Z,1.73
2023-04-03T16:11:32.399Z,1.92
2023-04-03T16:16:34.896Z,2.22
2023-04-03T16:21:36.590Z,2.00
2023-04-03T16:26:38.236Z,2.20
2023-04-03T16:31:40.015Z,1.92
2023-04-03T16:36:41.741Z,1.73
2023-04-03T16:41:43.404Z,1.65
2023-04-03T16:46:46.241Z,2.15
2023-04-03T16:51:49.796Z,2.20
2023-04-03T16:56:51.573Z,1.92
2023-04-03T17:01:53.368Z,1.88
2023-04-03T17:06:55.744Z,1.80
2023-04-03T17:11:57.540Z,2.20
2023-04-03T17:16:59.577Z,2.17
2023-04-03T17:22:01.592Z,2.20
2023-04-03T17:27:03.888Z,2.47
2023-04-03T17:32:05.664Z,2.58
2023-04-03T17:37:07.501Z,2.33
2023-04-03T17:42:09.347Z,2.10
2023-04-03T17:47:11.016Z,2.28
2023-04-03T17:52:12.656Z,2.10
2023-04-03T17:57:14.311Z,2.42
2023-04-03T18:02:16.136Z,2.47
2023-04-03T18:07:17.863Z,3.35
2023-04-03T18:12:19.738Z,2.40
2023-04-03T18:17:22.491Z,2.47
2023-04-03T18:22:25.353Z,2.47
2023-04-03T18:27:27.627Z,2.42
2023-04-03T18:32:29.254Z,2.50
2023-04-03T18:37:31.811Z,2.17
2023-04-03T18:42:33.487Z,2.90
2023-04-03T18:47:36.897Z,2.45
2023-04-03T18:52:38.589Z,2.00
2023-04-03T18:57:40.371Z,1.80
2023-04-03T19:02:42.276Z,2.15
2023-04-03T19:07:44.652Z,2.47
2023-04-03T19:12:47.918Z,2.03
2023-04-03T19:17:49.571Z,2.33
2023-04-03T19:22:51.773Z,2.35
2023-04-03T19:27:54.061Z,2.00
2023-04-03T19:32:55.817Z,2.22
2023-04-03T19:37:57.858Z,2.85
2023-04-03T19:42:59.711Z,2.13
2023-04-03T19:48:01.513Z,2.50
2023-04-03T19:53:39.131Z,2.28
2023-04-03T19:58:41.264Z,2.10
2023-04-03T20:03:42.950Z,2.25
2023-04-03T20:08:45.104Z,2.45
2023-04-03T20:13:51.541Z,2.65
2023-04-03T20:18:55.603Z,2.33
2023-04-03T20:23:57.462Z,2.38
2023-04-03T20:29:01.443Z,5.15
2023-04-03T20:34:03.656Z,4.38
2023-04-03T20:39:05.610Z,3.42
2023-04-03T20:44:07.437Z,8.05
2023-04-03T20:49:09.044Z,6.40
2023-04-03T20:54:11.534Z,5.55
2023-04-03T20:59:14.094Z,5.65
2023-04-03T21:04:30.438Z,5.05
2023-04-03T21:10:09.921Z,3.40
2023-04-03T21:15:55.302Z,2.42
2023-04-03T21:20:57.265Z,2.67
2023-04-03T21:26:02.096Z,2.50
2023-04-03T21:31:03.724Z,2.78
2023-04-03T21:36:05.737Z,2.47
2023-04-03T21:41:07.296Z,2.58
2023-04-03T21:46:09.434Z,2.40
2023-04-03T21:51:11.723Z,2.40
2023-04-03T21:56:13.562Z,3.03
2023-04-03T22:01:16.353Z,2.13
2023-04-03T22:06:18.051Z,2.85
2023-04-03T22:11:22.978Z,2.70
2023-04-03T22:16:24.737Z,2.65
2023-04-03T22:21:26.659Z,2.80
2023-04-03T22:26:28.539Z,2.67
2023-04-03T22:31:30.330Z,2.90
2023-04-03T22:36:32.000Z,2.55
2023-04-03T22:41:33.624Z,3.08
2023-04-03T22:46:35.639Z,2.50
2023-04-03T22:51:37.254Z,2.47
2023-04-03T22:56:38.938Z,2.80
2023-04-03T23:01:40.936Z,2.90
2023-04-03T23:06:42.698Z,2.53
2023-04-03T23:11:44.348Z,2.60
2023-04-03T23:16:46.788Z,2.50
2023-04-03T23:21:48.402Z,2.70
2023-04-03T23:26:50.251Z,2.60
2023-04-03T23:31:52.209Z,2.30
2023-04-03T23:36:54.064Z,2.60
2023-04-03T23:41:55.693Z,2.58
2023-04-03T23:46:59.018Z,2.75
2023-04-03T23:52:00.764Z,2.72
2023-04-03T23:57:02.593Z,2.22
